Date,TemperatureHighF,TemperatureAvgF,TemperatureLowF,DewpointHighF,DewpointAvgF,DewpointLowF,HumidityHigh,HumidityAvg,HumidityLow,PressureMaxIn,PressureMinIn,WindSpeedMaxMPH,WindSpeedAvgMPH,GustSpeedMaxMPH,PrecipitationSumIn
2013-3-1,31.5,29.8,28.3,32.0,30.2,28.0,100,100,100,29.63,29.52,21,4,21,0.06
2013-3-2,35.2,31.5,28.6,35.0,31.8,29.0,100,100,97,29.62,29.57,16,4,18,0.17
2013-3-3,41.3,34.9,32.0,39.0,34.1,32.0,100,96,83,29.60,29.48,11,3,11,0.02
2013-3-4,34.1,31.5,29.3,35.0,31.4,29.0,100,99,95,29.66,29.43,17,4,17,0.08
2013-3-5,42.1,34.5,31.9,38.0,33.8,32.0,100,97,81,30.15,29.66,15,3,17,0.18
2013-3-6,37.9,32.5,29.6,33.0,27.6,24.0,100,83,67,30.29,30.15,21,5,21,0.01
2013-3-7,36.5,31.5,29.2,26.0,24.5,23.0,85,75,61,30.26,30.09,23,3,24,0.00
2013-3-8,44.3,33.8,27.9,26.0,23.4,21.0,84,66,41,30.21,30.06,39,6,39,0.00
2013-3-9,41.7,31.4,25.2,26.0,23.7,23.0,90,73,48,30.39,30.18,20,4,21,0.00
2013-3-10,38.5,29.9,25.0,29.0,25.1,23.0,94,82,59,30.43,30.30,12,3,15,0.00
2013-3-11,42.7,36.2,30.1,37.0,34.1,29.0,100,91,75,30.33,30.19,25,5,29,0.00
2013-3-12,48.4,42.9,37.4,46.0,42.0,37.0,100,97,85,30.20,29.86,26,6,26,0.43
2013-3-13,47.6,41.4,32.5,47.5,41.0,29.0,100,98,82,29.86,29.65,28,5,28,0.58
2013-3-14,44.5,33.2,21.6,29.0,25.3,16.0,96,73,46,29.70,29.61,25,3,25,0.00
2013-3-15,34.0,23.4,15.7,18.0,12.2,8.0,87,60,36,29.73,29.60,24,4,28,0.01
2013-3-16,33.1,26.1,18.6,18.0,13.7,8.0,89,58,36,29.88,29.61,30,4,30,0.00
2013-3-17,29.1,20.7,13.7,11.0,5.2,-6.0,73,48,27,30.26,29.87,30,4,30,0.00
2013-3-18,32.8,20.7,10.3,8.0,0.6,-6.0,49,39,25,30.39,30.25,24,3,24,0.00
2013-3-19,25.3,22.8,21.0,23.0,16.4,4.0,99,77,37,30.30,29.65,22,4,24,0.00
2013-3-20,32.2,23.5,15.7,29.0,21.8,16.0,99,90,79,29.69,29.54,31,4,31,0.13
2013-3-21,38.5,29.1,18.5,26.0,21.5,16.0,95,74,39,29.77,29.60,20,2,20,0.17
2013-3-22,40.2,29.3,21.1,26.0,18.8,16.0,91,65,39,29.60,29.55,28,4,28,0.03
2013-3-23,39.4,30.1,21.1,26.0,20.4,14.0,81,67,45,29.58,29.41,37,4,44,0.00
2013-3-24,42.6,35.4,30.0,28.0,24.9,23.0,85,66,47,29.77,29.56,19,5,19,0.00
2013-3-25,44.1,35.6,26.9,32.0,27.8,24.0,99,74,49,29.77,29.61,17,3,17,0.00
2013-3-26,46.2,35.7,26.5,31.0,25.7,23.0,85,67,42,29.69,29.52,19,4,24,0.00
2013-3-27,38.5,34.6,32.2,39.0,33.6,28.0,100,95,83,29.85,29.67,24,5,24,0.22
2013-3-28,49.2,39.5,31.7,36.0,32.0,26.0,97,76,50,29.95,29.85,13,3,13,0.00
2013-3-29,52.0,43.2,36.8,37.0,33.4,29.0,91,68,44,29.99,29.93,23,4,23,0.00
2013-3-30,51.4,42.0,33.1,32.0,23.5,11.0,87,51,25,30.08,29.98,15,4,15,0.00
2013-3-31,52.6,41.1,32.5,36.0,19.8,14.0,97,45,22,30.13,29.92,17,4,17,0.00